sensor_id;sensor_type;location;lat;lon;timestamp;P1;durP1;ratioP1;P2;durP2;ratioP2
43690;SDS011;29293;52.190;21.226;2022-07-10T00:15:06;8.30;;;4.50;;
43690;SDS011;29293;52.190;21.226;2022-07-10T00:30:55;11.80;;;4.80;;
43690;SDS011;29293;52.190;21.226;2022-07-10T00:46:12;10.80;;;5.10;;
43690;SDS011;29293;52.190;21.226;2022-07-10T01:01:32;5.40;;;3.60;;
43690;SDS011;29293;52.190;21.226;2022-07-10T01:16:42;6.40;;;4.40;;
43690;SDS011;29293;52.190;21.226;2022-07-10T01:32:21;8.10;;;3.90;;
43690;SDS011;29293;52.190;21.226;2022-07-10T01:47:38;7.80;;;3.40;;
43690;SDS011;29293;52.190;21.226;2022-07-10T02:03:19;6.40;;;3.80;;
43690;SDS011;29293;52.190;21.226;2022-07-10T02:18:55;7.50;;;3.80;;
43690;SDS011;29293;52.190;21.226;2022-07-10T02:34:04;8.10;;;3.90;;
43690;SDS011;29293;52.190;21.226;2022-07-10T02:49:28;4.70;;;3.30;;
43690;SDS011;29293;52.190;21.226;2022-07-10T03:04:36;5.10;;;3.60;;
43690;SDS011;29293;52.190;21.226;2022-07-10T03:19:54;6.40;;;3.90;;
43690;SDS011;29293;52.190;21.226;2022-07-10T03:35:08;5.40;;;4.00;;
43690;SDS011;29293;52.190;21.226;2022-07-10T03:50:16;5.30;;;3.60;;
43690;SDS011;29293;52.190;21.226;2022-07-10T04:05:32;5.40;;;3.60;;
43690;SDS011;29293;52.190;21.226;2022-07-10T04:20:39;5.80;;;3.60;;
43690;SDS011;29293;52.190;21.226;2022-07-10T04:35:46;7.80;;;4.10;;
43690;SDS011;29293;52.190;21.226;2022-07-10T04:50:56;7.40;;;3.30;;
43690;SDS011;29293;52.190;21.226;2022-07-10T05:06:05;6.90;;;2.80;;
43690;SDS011;29293;52.190;21.226;2022-07-10T05:21:24;10.60;;;2.70;;
43690;SDS011;29293;52.190;21.226;2022-07-10T05:52:07;7.60;;;1.90;;
43690;SDS011;29293;52.190;21.226;2022-07-10T06:08:04;5.40;;;1.80;;
43690;SDS011;29293;52.190;21.226;2022-07-10T06:23:22;5.10;;;1.90;;
43690;SDS011;29293;52.190;21.226;2022-07-10T06:38:50;4.70;;;1.70;;
43690;SDS011;29293;52.190;21.226;2022-07-10T06:54:00;6.90;;;1.80;;
43690;SDS011;29293;52.190;21.226;2022-07-10T07:09:32;7.70;;;1.40;;
43690;SDS011;29293;52.190;21.226;2022-07-10T07:24:48;5.80;;;2.10;;
43690;SDS011;29293;52.190;21.226;2022-07-10T07:39:56;4.90;;;2.30;;
43690;SDS011;29293;52.190;21.226;2022-07-10T07:55:22;5.10;;;2.10;;
43690;SDS011;29293;52.190;21.226;2022-07-10T08:10:48;9.00;;;2.10;;
43690;SDS011;29293;52.190;21.226;2022-07-10T08:25:58;5.30;;;1.90;;
43690;SDS011;29293;52.190;21.226;2022-07-10T08:41:08;6.30;;;2.10;;
43690;SDS011;29293;52.190;21.226;2022-07-10T08:56:49;3.40;;;1.30;;
43690;SDS011;29293;52.190;21.226;2022-07-10T09:12:21;7.50;;;1.60;;
43690;SDS011;29293;52.190;21.226;2022-07-10T09:27:52;6.50;;;1.60;;
43690;SDS011;29293;52.190;21.226;2022-07-10T09:43:15;5.30;;;1.50;;
43690;SDS011;29293;52.190;21.226;2022-07-10T09:58:59;4.70;;;1.70;;
43690;SDS011;29293;52.190;21.226;2022-07-10T10:14:30;4.00;;;1.60;;
43690;SDS011;29293;52.190;21.226;2022-07-10T10:29:39;3.50;;;1.60;;
43690;SDS011;29293;52.190;21.226;2022-07-10T10:44:46;4.40;;;1.40;;
43690;SDS011;29293;52.190;21.226;2022-07-10T11:00:30;3.70;;;1.30;;
43690;SDS011;29293;52.190;21.226;2022-07-10T11:15:56;2.70;;;1.00;;
43690;SDS011;29293;52.190;21.226;2022-07-10T11:31:03;4.60;;;1.00;;
43690;SDS011;29293;52.190;21.226;2022-07-10T11:46:09;4.30;;;1.20;;
43690;SDS011;29293;52.190;21.226;2022-07-10T12:01:25;4.10;;;1.20;;
43690;SDS011;29293;52.190;21.226;2022-07-10T12:16:36;3.70;;;0.90;;
43690;SDS011;29293;52.190;21.226;2022-07-10T12:31:55;3.70;;;1.20;;
43690;SDS011;29293;52.190;21.226;2022-07-10T12:47:05;3.90;;;1.20;;
43690;SDS011;29293;52.190;21.226;2022-07-10T13:02:18;3.40;;;1.30;;
43690;SDS011;29293;52.190;21.226;2022-07-10T13:17:30;4.90;;;1.20;;
43690;SDS011;29293;52.190;21.226;2022-07-10T13:32:53;2.50;;;1.00;;
43690;SDS011;29293;52.190;21.226;2022-07-10T13:48:16;4.50;;;1.20;;
43690;SDS011;29293;52.190;21.226;2022-07-10T14:03:39;4.60;;;1.30;;
43690;SDS011;29293;52.190;21.226;2022-07-10T14:19:35;3.00;;;1.30;;
43690;SDS011;29293;52.190;21.226;2022-07-10T14:34:45;3.40;;;1.30;;
43690;SDS011;29293;52.190;21.226;2022-07-10T14:49:55;3.90;;;1.40;;
43690;SDS011;29293;52.190;21.226;2022-07-10T15:05:16;3.30;;;1.20;;
43690;SDS011;29293;52.190;21.226;2022-07-10T15:20:40;5.10;;;1.20;;
43690;SDS011;29293;52.190;21.226;2022-07-10T15:36:00;1.30;;;0.70;;
43690;SDS011;29293;52.190;21.226;2022-07-10T15:51:20;4.10;;;1.00;;
43690;SDS011;29293;52.190;21.226;2022-07-10T16:06:53;3.70;;;1.20;;
43690;SDS011;29293;52.190;21.226;2022-07-10T16:22:21;2.40;;;1.00;;
43690;SDS011;29293;52.190;21.226;2022-07-10T16:37:31;4.10;;;1.10;;
43690;SDS011;29293;52.190;21.226;2022-07-10T16:52:41;1.30;;;0.60;;
43690;SDS011;29293;52.190;21.226;2022-07-10T17:07:54;1.40;;;0.60;;
43690;SDS011;29293;52.190;21.226;2022-07-10T17:23:14;1.40;;;0.70;;
43690;SDS011;29293;52.190;21.226;2022-07-10T17:38:41;1.40;;;0.60;;
43690;SDS011;29293;52.190;21.226;2022-07-10T17:53:47;1.80;;;0.60;;
43690;SDS011;29293;52.190;21.226;2022-07-10T18:09:02;2.00;;;0.60;;
43690;SDS011;29293;52.190;21.226;2022-07-10T18:24:09;2.00;;;0.70;;
43690;SDS011;29293;52.190;21.226;2022-07-10T18:39:24;1.80;;;0.70;;
43690;SDS011;29293;52.190;21.226;2022-07-10T18:54:47;2.00;;;0.90;;
43690;SDS011;29293;52.190;21.226;2022-07-10T19:10:07;3.70;;;0.90;;
43690;SDS011;29293;52.190;21.226;2022-07-10T19:25:33;1.90;;;0.70;;
43690;SDS011;29293;52.190;21.226;2022-07-10T19:40:53;2.00;;;0.80;;
43690;SDS011;29293;52.190;21.226;2022-07-10T19:56:17;2.70;;;0.90;;
43690;SDS011;29293;52.190;21.226;2022-07-10T20:11:37;2.70;;;1.50;;
43690;SDS011;29293;52.190;21.226;2022-07-10T20:27:22;5.50;;;2.20;;
43690;SDS011;29293;52.190;21.226;2022-07-10T20:42:32;3.90;;;2.50;;
43690;SDS011;29293;52.190;21.226;2022-07-10T20:57:42;5.30;;;2.50;;
43690;SDS011;29293;52.190;21.226;2022-07-10T21:13:29;4.20;;;2.40;;
43690;SDS011;29293;52.190;21.226;2022-07-10T21:28:55;5.50;;;3.20;;
43690;SDS011;29293;52.190;21.226;2022-07-10T21:44:22;6.30;;;3.00;;
43690;SDS011;29293;52.190;21.226;2022-07-10T21:59:32;4.70;;;2.50;;
43690;SDS011;29293;52.190;21.226;2022-07-10T22:14:59;5.30;;;2.50;;
43690;SDS011;29293;52.190;21.226;2022-07-10T22:30:10;5.20;;;2.50;;
43690;SDS011;29293;52.190;21.226;2022-07-10T22:45:30;4.70;;;2.90;;
43690;SDS011;29293;52.190;21.226;2022-07-10T23:00:50;5.10;;;3.30;;
43690;SDS011;29293;52.190;21.226;2022-07-10T23:16:10;4.30;;;2.80;;
43690;SDS011;29293;52.190;21.226;2022-07-10T23:31:31;7.90;;;3.10;;
43690;SDS011;29293;52.190;21.226;2022-07-10T23:46:56;6.40;;;3.10;;
